VYMD/MDL METAR and TAF weather

Enter ICAO airport designator
Station Type Date Time Source
VYMD METAR 2019/08/25 13:30 UTC NOAA

VYMD 251330Z 17005KT 5000 -TSRA BKN015 FEW018CB OVC090 29/26 Q1004 TEMPO 5000 -RA


Station Type Date Time Source
VYMD Decoded METAR 2019/08/25 13:30 UTC NOAA

Station name not available
Aug 25, 2019 - 09:30 AM EDT / 2019.08.25 1330 UTC
Wind: from the S (170 degrees) at 6 MPH (5 KT):0
Visibility: 3 mile(s):0
Sky conditions: overcast
Weather: light rain with thunder; Cumulonimbus clouds observed
Temperature: 84 F (29 C)
Dew Point: 78 F (26 C)
Relative Humidity: 83%
Pressure (altimeter): 29.65 in. Hg (1004 hPa)
ob: VYMD 251330Z 17005KT 5000 -TSRA BKN015 FEW018CB OVC090 29/26 Q1004 TEMPO 5000 -RA
cycle: 13

Station Type Date Time Source
VYMD TAF 2019/08/25 12:00 UTC NOAA

TAF VYMD 251100Z 2512/2612 13005KT 7000 BKN018 FEW020CB
TEMPO 2512/2518 17007KT 5000 -TSRA BKN015 FEW018CB OVC090

Example: see airport list